createdAt,value
2023-02-06T00:00:55.830Z,98910.88
2023-02-06T00:03:23.977Z,98919.00
2023-02-06T00:05:56.694Z,98926.16
2023-02-06T00:08:24.995Z,98924.44
2023-02-06T00:10:53.198Z,98925.31
2023-02-06T00:13:21.532Z,98924.44
2023-02-06T00:15:49.747Z,98928.03
2023-02-06T00:18:19.402Z,98933.41
2023-02-06T00:20:47.635Z,98929.88
2023-02-06T00:23:16.014Z,98936.97
2023-02-06T00:25:44.280Z,98930.88
2023-02-06T00:28:12.469Z,98931.78
2023-02-06T00:30:40.909Z,98923.72
2023-02-06T00:33:09.184Z,98931.75
2023-02-06T00:35:38.912Z,98927.28
2023-02-06T00:38:08.185Z,98938.91
2023-02-06T00:40:36.373Z,98938.03
2023-02-06T00:43:04.564Z,98947.03
2023-02-06T00:45:32.891Z,98945.28
2023-02-06T00:48:01.252Z,98956.91
2023-02-06T00:50:29.494Z,98956.03
2023-02-06T00:52:59.032Z,98963.19
2023-02-06T00:55:28.602Z,98969.50
2023-02-06T00:57:56.824Z,98970.44
2023-02-06T01:00:25.219Z,98966.81
2023-02-06T01:02:53.420Z,98976.69
2023-02-06T01:05:22.271Z,98971.38
2023-02-06T01:07:53.384Z,98974.06
2023-02-06T01:10:23.296Z,98974.13
2023-02-06T01:12:51.588Z,98969.63
2023-02-06T01:15:19.937Z,98975.94
2023-02-06T01:17:48.153Z,98973.25
2023-02-06T01:20:16.336Z,98974.16
2023-02-06T01:22:44.618Z,98976.00
2023-02-06T01:25:13.545Z,98980.50
2023-02-06T01:27:43.218Z,98983.19
2023-02-06T01:30:12.669Z,98979.59
2023-02-06T01:32:41.735Z,98986.78
2023-02-06T01:35:10.849Z,98986.84
2023-02-06T01:37:39.238Z,98984.22
2023-02-06T01:40:09.424Z,98985.22
2023-02-06T01:42:37.834Z,98987.91
2023-02-06T01:45:53.120Z,98983.47
2023-02-06T01:48:22.964Z,98976.41
2023-02-06T01:50:52.566Z,98983.56
2023-02-06T01:53:22.326Z,98986.19
2023-02-06T01:55:51.152Z,98991.53
2023-02-06T01:58:22.358Z,98986.16
2023-02-06T02:00:52.042Z,98985.28
2023-02-06T02:03:20.287Z,98987.06
2023-02-06T02:05:48.472Z,98997.81
2023-02-06T02:08:18.792Z,98983.50
2023-02-06T02:10:47.004Z,98992.50
2023-02-06T02:13:15.388Z,98987.13
2023-02-06T02:15:50.554Z,98980.88
2023-02-06T02:18:27.464Z,98988.06
2023-02-06T02:21:06.786Z,98984.53
2023-02-06T02:23:36.846Z,98992.56
2023-02-06T02:26:37.456Z,98983.63
2023-02-06T02:29:37.952Z,98990.81
2023-02-06T02:32:40.764Z,98991.75
2023-02-06T02:35:16.047Z,98968.50
2023-02-06T02:37:50.538Z,98962.25
2023-02-06T02:40:23.257Z,98967.63
2023-02-06T02:42:55.488Z,98969.47
2023-02-06T02:45:25.965Z,98974.81
2023-02-06T02:47:57.347Z,98973.00
2023-02-06T02:50:27.125Z,98976.63
2023-02-06T02:52:55.267Z,98978.44
2023-02-06T02:55:24.148Z,98988.28
2023-02-06T02:58:00.224Z,98987.47
2023-02-06T03:00:28.496Z,98979.41
2023-02-06T03:02:56.656Z,98977.59
2023-02-06T03:05:26.391Z,98993.78
2023-02-06T03:08:03.180Z,98992.84
2023-02-06T03:10:34.977Z,98991.03
2023-02-06T03:13:05.412Z,98981.19
2023-02-06T03:15:37.845Z,98983.88
2023-02-06T03:18:09.033Z,98988.34
2023-02-06T03:20:39.099Z,98981.19
2023-02-06T03:23:07.289Z,98980.28
2023-02-06T03:25:37.509Z,98981.19
2023-02-06T03:28:06.202Z,98993.72
2023-02-06T03:30:34.433Z,98992.84
2023-02-06T03:33:04.339Z,98997.28
2023-02-06T03:35:34.166Z,98999.97
2023-02-06T03:38:04.165Z,99002.72
2023-02-06T03:40:32.333Z,99000.03
2023-02-06T03:43:02.110Z,98997.34
2023-02-06T03:45:31.526Z,99000.03
2023-02-06T03:48:02.584Z,99000.06
2023-02-06T03:50:31.090Z,98990.28
2023-02-06T03:52:59.621Z,98991.19
2023-02-06T03:55:29.334Z,98991.19
2023-02-06T03:57:59.190Z,98993.88
2023-02-06T04:00:27.552Z,99005.56
2023-02-06T04:02:55.849Z,99004.69
2023-02-06T04:05:24.096Z,99002.88
2023-02-06T04:07:53.994Z,98996.63
2023-02-06T04:10:22.265Z,98999.31
2023-02-06T04:12:51.869Z,99004.75
2023-02-06T04:15:20.337Z,99002.97
2023-02-06T04:17:59.541Z,99006.66
2023-02-06T04:20:29.236Z,99009.41
2023-02-06T04:22:57.559Z,99001.47
2023-02-06T04:25:25.846Z,99005.09
2023-02-06T04:27:55.444Z,99005.09
2023-02-06T04:30:23.765Z,99009.63
2023-02-06T04:32:52.044Z,99002.59
2023-02-06T04:35:20.437Z,99004.41
2023-02-06T04:37:48.810Z,99004.47
2023-02-06T04:40:17.302Z,99003.63
2023-02-06T04:42:45.526Z,99003.66
2023-02-06T04:45:15.272Z,99001.03
2023-02-06T04:47:43.713Z,99001.03
2023-02-06T04:50:12.042Z,98999.34
2023-02-06T04:52:40.274Z,98991.28
2023-02-06T04:55:09.109Z,98998.50
2023-02-06T04:57:37.423Z,98986.94
2023-02-06T05:00:06.240Z,98986.97
2023-02-06T05:02:39.786Z,98979.84
2023-02-06T05:05:09.210Z,98971.81
2023-02-06T05:07:37.395Z,98972.78
2023-02-06T05:10:05.964Z,98975.47
2023-02-06T05:12:34.676Z,98979.94
2023-02-06T05:15:02.975Z,98983.44
2023-02-06T05:17:31.139Z,98980.63
2023-02-06T05:20:00.807Z,98979.63
2023-02-06T05:22:29.096Z,98985.00
2023-02-06T05:24:57.333Z,98986.81
2023-02-06T05:27:25.900Z,98999.31
2023-02-06T05:29:54.138Z,98993.94
2023-02-06T05:32:22.376Z,98998.34
2023-02-06T05:34:50.598Z,99002.81
2023-02-06T05:37:20.248Z,99002.81
2023-02-06T05:39:48.585Z,98986.75
2023-02-06T05:42:16.757Z,98985.75
2023-02-06T05:44:45.205Z,99003.63
2023-02-06T05:47:13.518Z,99000.00
2023-02-06T05:49:44.102Z,98997.31
2023-02-06T05:52:12.434Z,98998.22
2023-02-06T05:54:42.042Z,98988.34
2023-02-06T05:57:10.515Z,98989.19
2023-02-06T05:59:38.767Z,98987.31
2023-02-06T06:02:07.360Z,98980.94
2023-02-06T06:04:35.553Z,98984.38
2023-02-06T06:07:03.939Z,98988.72
2023-02-06T06:09:32.098Z,98979.75
2023-02-06T06:12:01.729Z,98976.13
2023-02-06T06:14:29.979Z,98967.25
2023-02-06T06:16:58.165Z,98976.31
2023-02-06T06:19:26.404Z,98974.47
2023-02-06T06:21:55.581Z,98978.88
2023-02-06T06:24:25.586Z,98968.97
2023-02-06T06:26:54.110Z,98968.91
2023-02-06T06:29:24.193Z,98976.03
2023-02-06T06:31:52.894Z,98988.50
2023-02-06T06:34:21.015Z,98979.53
2023-02-06T06:36:49.272Z,98986.72
2023-02-06T06:39:17.413Z,98994.75
2023-02-06T06:41:45.960Z,98989.41
2023-02-06T06:44:14.117Z,99000.13
2023-02-06T06:46:43.815Z,99002.81
2023-02-06T06:49:12.051Z,98999.25
2023-02-06T06:51:40.218Z,98998.41
2023-02-06T06:54:08.374Z,98993.03
2023-02-06T06:56:36.685Z,98993.88
2023-02-06T06:59:04.930Z,98997.38
2023-02-06T07:01:33.098Z,98985.78
2023-02-06T07:04:02.727Z,98974.22
2023-02-06T07:06:31.051Z,98971.47
2023-02-06T07:08:59.291Z,98973.28
2023-02-06T07:11:27.518Z,98970.53
2023-02-06T07:13:55.707Z,98976.78
2023-02-06T07:16:24.667Z,98977.69
2023-02-06T07:18:52.913Z,98962.44
2023-02-06T07:21:22.601Z,98972.31
2023-02-06T07:23:51.131Z,98974.03
2023-02-06T07:26:19.352Z,98968.66
2023-02-06T07:28:49.318Z,98975.81
2023-02-06T07:31:17.670Z,98965.00
2023-02-06T07:33:46.025Z,98962.31
2023-02-06T07:36:14.202Z,98965.00
2023-02-06T07:38:43.876Z,98958.72
2023-02-06T07:41:12.833Z,98958.72
2023-02-06T07:43:41.154Z,98961.34
2023-02-06T07:46:09.392Z,98971.13
2023-02-06T07:48:38.016Z,98964.84
2023-02-06T07:51:07.142Z,98959.47
2023-02-06T07:53:35.561Z,98958.66
2023-02-06T07:56:10.305Z,98963.88
2023-02-06T07:58:38.888Z,98968.22
2023-02-06T08:01:07.384Z,98963.63
2023-02-06T08:03:35.677Z,98960.88
2023-02-06T08:06:09.117Z,98969.75
2023-02-06T08:08:37.354Z,98965.28
2023-02-06T08:11:08.060Z,98970.66
2023-02-06T08:13:36.532Z,98976.03
2023-02-06T08:16:06.539Z,98970.66
2023-02-06T08:18:34.886Z,98966.19
2023-02-06T08:21:03.610Z,98966.19
2023-02-06T08:23:31.804Z,98962.56
2023-02-06T08:26:04.086Z,98963.44
2023-02-06T08:28:35.286Z,98958.06
2023-02-06T08:31:05.880Z,98956.19
2023-02-06T08:33:35.610Z,98955.34
2023-02-06T08:36:04.086Z,98957.13
2023-02-06T08:38:32.271Z,98962.50
2023-02-06T08:41:00.610Z,98969.63
2023-02-06T08:43:28.790Z,98967.81
2023-02-06T08:45:59.663Z,98975.88
2023-02-06T08:48:28.072Z,98970.63
2023-02-06T08:51:03.895Z,98967.13
2023-02-06T08:53:32.101Z,98974.47
2023-02-06T08:56:00.708Z,98964.91
2023-02-06T08:58:28.920Z,98970.28
2023-02-06T09:01:00.076Z,98969.41
2023-02-06T09:03:28.635Z,98973.88
2023-02-06T09:06:09.381Z,98984.56
2023-02-06T09:08:38.575Z,98973.78
2023-02-06T09:11:07.797Z,98980.94
2023-02-06T09:13:36.134Z,98979.16
2023-02-06T09:16:06.692Z,98977.31
2023-02-06T09:18:35.218Z,98973.72
2023-02-06T09:21:08.244Z,98988.03
2023-02-06T09:23:36.732Z,98979.03
2023-02-06T09:26:05.184Z,98983.50
2023-02-06T09:28:33.413Z,98987.97
2023-02-06T09:31:01.728Z,98985.28
2023-02-06T09:33:31.367Z,98993.31
2023-02-06T09:36:04.168Z,98990.50
2023-02-06T09:38:32.358Z,98985.09
2023-02-06T09:41:01.047Z,98983.25
2023-02-06T09:43:29.289Z,98985.03
2023-02-06T09:45:59.302Z,98972.59
2023-02-06T09:48:28.619Z,98978.03
2023-02-06T09:51:02.994Z,98975.41
2023-02-06T09:53:33.565Z,98974.53
2023-02-06T09:56:04.418Z,98969.16
2023-02-06T09:58:37.760Z,98970.97
2023-02-06T10:01:08.898Z,98966.53
2023-02-06T10:03:45.323Z,98965.59
2023-02-06T10:06:19.194Z,98958.41
2023-02-06T10:08:52.115Z,98961.09
2023-02-06T10:11:35.108Z,98963.78
2023-02-06T10:14:05.498Z,98969.16
2023-02-06T10:16:37.986Z,98954.84
2023-02-06T10:19:08.814Z,98951.28
2023-02-06T10:21:41.533Z,98954.84
2023-02-06T10:24:11.911Z,98950.38
2023-02-06T10:26:40.852Z,98942.31
2023-02-06T10:29:16.772Z,98932.50
2023-02-06T10:32:00.693Z,98924.44
2023-02-06T10:34:38.990Z,98921.75
2023-02-06T10:37:16.968Z,98921.72
2023-02-06T10:40:03.647Z,98919.03
2023-02-06T10:42:39.117Z,98915.47
2023-02-06T10:45:19.702Z,98909.13
2023-02-06T10:47:51.275Z,98902.91
2023-02-06T10:50:24.045Z,98902.91
2023-02-06T10:52:53.690Z,98910.03
2023-02-06T10:55:24.376Z,98907.34
2023-02-06T10:57:58.113Z,98894.78
2023-02-06T11:00:27.054Z,98891.22
2023-02-06T11:03:07.196Z,98891.16
2023-02-06T11:05:37.003Z,98885.75
2023-02-06T11:08:11.133Z,98881.31
2023-02-06T11:10:39.647Z,98878.56
2023-02-06T11:13:09.472Z,98877.63
2023-02-06T11:15:40.693Z,98870.38
2023-02-06T11:18:10.630Z,98870.38
2023-02-06T11:20:39.785Z,98865.94
2023-02-06T11:23:20.081Z,98863.25
2023-02-06T11:25:50.885Z,98855.19
2023-02-06T11:28:19.965Z,98855.19
2023-02-06T11:30:55.923Z,98848.97
2023-02-06T11:33:26.859Z,98833.78
2023-02-06T11:35:56.046Z,98831.97
2023-02-06T11:38:28.034Z,98833.78
2023-02-06T11:40:57.862Z,98822.13
2023-02-06T11:43:27.359Z,98825.56
2023-02-06T11:46:08.741Z,98822.72
2023-02-06T11:48:39.001Z,98812.78
2023-02-06T11:51:07.651Z,98815.38
2023-02-06T11:53:37.314Z,98817.91
2023-02-06T11:56:08.208Z,98815.31
2023-02-06T11:58:36.647Z,98810.81
2023-02-06T12:01:06.766Z,98816.13
2023-02-06T12:03:37.354Z,98814.38
2023-02-06T12:06:11.416Z,98814.41
2023-02-06T12:08:49.593Z,98813.50
2023-02-06T12:11:23.285Z,98818.88
2023-02-06T12:13:53.745Z,98811.72
2023-02-06T12:16:22.030Z,98802.81
2023-02-06T12:18:52.428Z,98810.81
2023-02-06T12:21:27.172Z,98799.19
2023-02-06T12:23:58.741Z,98793.88
2023-02-06T12:26:29.947Z,98798.31
2023-02-06T12:29:00.360Z,98795.63
2023-02-06T12:31:32.355Z,98794.78
2023-02-06T12:34:04.747Z,98791.19
2023-02-06T12:36:36.816Z,98790.31
2023-02-06T12:39:07.607Z,98796.56
2023-02-06T12:41:48.337Z,98793.00
2023-02-06T12:44:23.746Z,98789.44
2023-02-06T12:46:53.778Z,98787.63
2023-02-06T12:49:23.754Z,98792.09
2023-02-06T12:51:55.178Z,98791.13
2023-02-06T12:54:28.447Z,98787.53
2023-02-06T12:56:58.472Z,98792.00
2023-02-06T12:59:57.202Z,98783.97
2023-02-06T13:02:36.801Z,98783.16
2023-02-06T13:05:05.970Z,98784.94
2023-02-06T13:07:41.580Z,98783.25
2023-02-06T13:10:20.729Z,98777.88
2023-02-06T13:12:54.752Z,98777.84
2023-02-06T13:15:24.125Z,98778.66
2023-02-06T13:17:52.735Z,98776.81
2023-02-06T13:20:21.321Z,98782.19
2023-02-06T13:22:51.181Z,98770.53
2023-02-06T13:25:50.486Z,98770.53
2023-02-06T13:28:40.965Z,98771.44
2023-02-06T13:31:28.017Z,98767.84
2023-02-06T13:33:58.197Z,98779.41
2023-02-06T13:36:28.260Z,98770.38
2023-02-06T13:38:57.383Z,98771.34
2023-02-06T13:41:32.039Z,98773.06
2023-02-06T13:44:02.055Z,98772.22
2023-02-06T13:46:41.099Z,98773.06
2023-02-06T13:49:19.636Z,98767.69
2023-02-06T13:51:50.404Z,98775.75
2023-02-06T13:54:55.425Z,98777.59
2023-02-06T13:57:31.188Z,98781.13
2023-02-06T14:00:01.153Z,98775.75
2023-02-06T14:02:35.425Z,98780.28
2023-02-06T14:05:04.411Z,98777.63
2023-02-06T14:07:50.705Z,98779.41
2023-02-06T14:10:33.005Z,98778.50
2023-02-06T14:13:09.283Z,98779.41
2023-02-06T14:15:41.045Z,98783.88
2023-02-06T14:18:20.511Z,98782.09
2023-02-06T14:20:50.801Z,98774.91
2023-02-06T14:23:25.965Z,98776.72
2023-02-06T14:26:00.761Z,98778.44
2023-02-06T14:28:34.813Z,98773.94
2023-02-06T14:31:10.188Z,98776.63
2023-02-06T14:33:50.332Z,98775.72
2023-02-06T14:36:25.501Z,98774.84
2023-02-06T14:39:08.520Z,98779.25
2023-02-06T14:41:39.713Z,98781.94
2023-02-06T14:44:14.514Z,98774.75
2023-02-06T14:46:44.085Z,98778.31
2023-02-06T14:49:15.818Z,98778.31
2023-02-06T14:51:44.061Z,98773.03
2023-02-06T14:54:29.233Z,98775.75
2023-02-06T14:56:57.716Z,98784.69
2023-02-06T14:59:27.431Z,98774.84
2023-02-06T15:01:56.399Z,98778.44
2023-02-06T15:04:26.092Z,98775.81
2023-02-06T15:06:55.185Z,98778.59
2023-02-06T15:09:27.554Z,98788.38
2023-02-06T15:11:58.275Z,98785.75
2023-02-06T15:14:28.973Z,98791.13
2023-02-06T15:16:59.915Z,98792.94
2023-02-06T15:19:29.434Z,98789.31
2023-02-06T15:22:00.961Z,98798.28
2023-02-06T15:24:52.809Z,98797.38
2023-02-06T15:27:27.425Z,98809.00
2023-02-06T15:29:57.129Z,98796.44
2023-02-06T15:32:28.820Z,98803.63
2023-02-06T15:34:57.112Z,98807.19
2023-02-06T15:37:27.373Z,98799.13
2023-02-06T15:39:55.707Z,98797.31
2023-02-06T15:42:24.249Z,98810.75
2023-02-06T15:45:02.979Z,98800.88
2023-02-06T15:47:31.200Z,98806.25
2023-02-06T15:50:00.675Z,98810.66
2023-02-06T15:52:37.249Z,98821.41
2023-02-06T15:55:06.093Z,98809.84
2023-02-06T15:57:35.477Z,98821.50
2023-02-06T16:00:09.747Z,98820.56
2023-02-06T16:02:41.271Z,98818.72
2023-02-06T16:05:09.812Z,98823.25
2023-02-06T16:07:38.483Z,98828.56
2023-02-06T16:10:22.584Z,98832.16
2023-02-06T16:12:51.217Z,98839.28
2023-02-06T16:15:27.512Z,98842.88
2023-02-06T16:17:56.143Z,98838.47
2023-02-06T16:20:33.493Z,98854.53
2023-02-06T16:23:21.512Z,98845.59
2023-02-06T16:25:50.317Z,98854.53
2023-02-06T16:28:22.952Z,98854.47
2023-02-06T16:30:57.430Z,98851.78
2023-02-06T16:33:33.977Z,98853.53
2023-02-06T16:36:02.179Z,98866.00
2023-02-06T16:38:30.542Z,98863.28
2023-02-06T16:40:58.833Z,98859.66
2023-02-06T16:43:28.039Z,98868.59
2023-02-06T16:46:00.636Z,98869.47
2023-02-06T16:48:29.343Z,98873.00
2023-02-06T16:50:57.547Z,98871.13
2023-02-06T16:53:26.251Z,98877.41
2023-02-06T16:55:54.427Z,98891.56
2023-02-06T16:58:23.616Z,98903.09
2023-02-06T17:00:52.914Z,98911.97
2023-02-06T17:03:22.554Z,98916.38
2023-02-06T17:05:53.689Z,98917.34
2023-02-06T17:08:24.517Z,98924.53
2023-02-06T17:10:53.192Z,98927.22
2023-02-06T17:13:22.228Z,98928.13
2023-02-06T17:15:52.439Z,98929.00
2023-02-06T17:18:22.604Z,98932.66
2023-02-06T17:20:51.805Z,98929.97
2023-02-06T17:23:20.093Z,98932.66
2023-02-06T17:25:48.591Z,98932.59
2023-02-06T17:28:18.236Z,98939.69
2023-02-06T17:30:46.858Z,98945.06
2023-02-06T17:33:15.160Z,98947.72
2023-02-06T17:35:46.348Z,98951.25
2023-02-06T17:38:14.757Z,98968.19
2023-02-06T17:40:42.982Z,98962.75
2023-02-06T17:43:11.239Z,98970.72
2023-02-06T17:45:39.838Z,98967.97
2023-02-06T17:48:08.333Z,98964.38
2023-02-06T17:50:37.770Z,98974.16
2023-02-06T17:53:08.907Z,98976.81
2023-02-06T17:55:37.530Z,98977.66
2023-02-06T17:58:05.740Z,98977.63
2023-02-06T18:00:34.395Z,98974.88
2023-02-06T18:03:02.850Z,98978.47
2023-02-06T18:05:31.277Z,98985.69
2023-02-06T18:07:59.474Z,98985.69
2023-02-06T18:10:29.327Z,98985.69
2023-02-06T18:12:58.086Z,98983.00
2023-02-06T18:15:26.305Z,98988.41
2023-02-06T18:17:55.164Z,98981.25
2023-02-06T18:20:23.563Z,98975.94
2023-02-06T18:22:51.790Z,98986.63
2023-02-06T18:25:20.248Z,98987.56
2023-02-06T18:27:49.967Z,98992.97
2023-02-06T18:30:19.368Z,99002.81
2023-02-06T18:32:47.673Z,99010.00
2023-02-06T18:35:16.566Z,99012.69
2023-02-06T18:37:44.989Z,99013.63
2023-02-06T18:40:13.673Z,99005.56
2023-02-06T18:42:55.335Z,99008.28
2023-02-06T18:45:26.012Z,99010.06
2023-02-06T18:47:55.676Z,99006.47
2023-02-06T18:50:24.130Z,99011.88
2023-02-06T18:52:52.505Z,99002.09
2023-02-06T18:55:21.048Z,98999.41
2023-02-06T18:57:49.695Z,98997.59
2023-02-06T19:00:19.038Z,99014.63
2023-02-06T19:02:48.769Z,99010.22
2023-02-06T19:05:17.027Z,99005.75
2023-02-06T19:07:47.006Z,99006.66
2023-02-06T19:10:16.388Z,99014.72
2023-02-06T19:12:44.763Z,99022.78
2023-02-06T19:15:13.417Z,99022.75
2023-02-06T19:17:41.696Z,99028.13
2023-02-06T19:20:13.284Z,99022.75
2023-02-06T19:22:42.278Z,99029.91
2023-02-06T19:25:14.045Z,99026.34
2023-02-06T19:27:42.577Z,99024.63
2023-02-06T19:30:13.149Z,99029.03
2023-02-06T19:32:41.394Z,99026.34
2023-02-06T19:35:12.108Z,99029.91
2023-02-06T19:37:40.450Z,99032.63
2023-02-06T19:40:09.229Z,99032.63
2023-02-06T19:42:37.597Z,99033.53
2023-02-06T19:45:07.311Z,99032.63
2023-02-06T19:47:36.279Z,99036.22
2023-02-06T19:50:04.772Z,99036.19
2023-02-06T19:52:46.658Z,99041.59
2023-02-06T19:55:16.487Z,99046.03
2023-02-06T19:57:44.696Z,99041.59
2023-02-06T20:00:14.168Z,99033.53
2023-02-06T20:02:42.541Z,99034.47
2023-02-06T20:05:10.966Z,99035.38
2023-02-06T20:07:39.221Z,99041.66
2023-02-06T20:10:08.052Z,99037.16
2023-02-06T20:12:37.648Z,99026.41
2023-02-06T20:15:06.597Z,99032.72
2023-02-06T20:17:34.772Z,99031.88
2023-02-06T20:20:03.227Z,99037.25
2023-02-06T20:22:31.416Z,99037.25
2023-02-06T20:24:59.669Z,99036.34
2023-02-06T20:27:27.881Z,99047.09
2023-02-06T20:29:57.742Z,99040.84
2023-02-06T20:32:26.168Z,99039.03
2023-02-06T20:34:54.436Z,99052.47
2023-02-06T20:37:22.610Z,99057.88
2023-02-06T20:39:50.828Z,99057.91
2023-02-06T20:42:19.541Z,99057.06
2023-02-06T20:44:47.661Z,99057.06
2023-02-06T20:47:17.620Z,99064.25
2023-02-06T20:49:45.803Z,99065.13
2023-02-06T20:52:14.197Z,99074.03
2023-02-06T20:54:42.841Z,99076.72
2023-02-06T20:57:11.131Z,99065.97
2023-02-06T20:59:40.130Z,99066.94
2023-02-06T21:02:08.357Z,99070.50
2023-02-06T21:04:38.182Z,99068.66
2023-02-06T21:07:06.454Z,99083.03
2023-02-06T21:09:35.325Z,99082.22
2023-02-06T21:12:03.538Z,99081.41
2023-02-06T21:14:32.125Z,99079.63
2023-02-06T21:17:00.323Z,99082.41
2023-02-06T21:19:29.358Z,99085.00
2023-02-06T21:21:58.976Z,99077.84
2023-02-06T21:24:27.280Z,99088.59
2023-02-06T21:26:55.475Z,99089.47
2023-02-06T21:29:24.101Z,99095.75
2023-02-06T21:32:03.669Z,99096.72
2023-02-06T21:34:39.859Z,99095.88
2023-02-06T21:37:09.487Z,99113.75
2023-02-06T21:39:38.958Z,99112.00
2023-02-06T21:42:07.268Z,99118.31
2023-02-06T21:44:37.164Z,99116.56
2023-02-06T21:47:05.584Z,99119.25
2023-02-06T21:49:34.004Z,99115.69
2023-02-06T21:52:02.260Z,99114.78
2023-02-06T21:54:31.884Z,99109.47
2023-02-06T21:57:00.167Z,99110.38
2023-02-06T21:59:28.353Z,99106.78
2023-02-06T22:01:56.758Z,99101.44
2023-02-06T22:04:24.903Z,99112.16
2023-02-06T22:06:53.201Z,99099.69
2023-02-06T22:09:21.685Z,99115.81
2023-02-06T22:11:51.550Z,99111.34
2023-02-06T22:14:19.832Z,99118.53
2023-02-06T22:16:48.035Z,99113.16
2023-02-06T22:19:16.540Z,99123.03
2023-02-06T22:21:45.169Z,99122.16
2023-02-06T22:24:13.407Z,99115.03
2023-02-06T22:26:41.671Z,99118.59
2023-02-06T22:29:12.696Z,99121.34
2023-02-06T22:31:43.164Z,99127.63
2023-02-06T22:34:12.022Z,99127.63
2023-02-06T22:36:40.529Z,99128.63
2023-02-06T22:39:09.495Z,99132.31
2023-02-06T22:41:39.576Z,99142.22
2023-02-06T22:44:07.926Z,99131.47
2023-02-06T22:46:38.884Z,99142.22
2023-02-06T22:49:07.169Z,99145.78
2023-02-06T22:51:35.453Z,99146.66
2023-02-06T22:54:03.860Z,99155.66
2023-02-06T22:56:36.251Z,99149.41
2023-02-06T22:59:05.880Z,99163.72
2023-02-06T23:01:35.472Z,99160.13
2023-02-06T23:04:05.907Z,99161.03
2023-02-06T23:06:34.855Z,99166.41
2023-02-06T23:09:03.404Z,99161.94
2023-02-06T23:11:32.292Z,99169.16
2023-02-06T23:14:01.499Z,99170.88
2023-02-06T23:16:30.123Z,99171.84
2023-02-06T23:18:58.421Z,99170.94
2023-02-06T23:21:28.162Z,99170.94
2023-02-06T23:23:56.803Z,99174.53
2023-02-06T23:26:25.058Z,99179.06
2023-02-06T23:28:53.304Z,99180.88
2023-02-06T23:31:21.503Z,99179.97
2023-02-06T23:33:49.827Z,99181.78
2023-02-06T23:36:19.757Z,99184.47
2023-02-06T23:38:49.541Z,99183.63
2023-02-06T23:41:19.046Z,99180.03
2023-02-06T23:43:50.902Z,99186.31
2023-02-06T23:46:20.203Z,99187.22
2023-02-06T23:48:48.557Z,99184.59
2023-02-06T23:51:16.986Z,99184.59
2023-02-06T23:53:45.419Z,99184.59
2023-02-06T23:56:16.789Z,99183.69
2023-02-06T23:58:45.033Z,99180.13
